sensor_id;sensor_type;location;lat;lon;timestamp;pressure;altitude;pressure_sealevel;temperature;humidity
4767;BME280;2397;53.576;9.746;2023-01-28T00:00:35;102930.81;;;0.10;100.00
4767;BME280;2397;53.576;9.746;2023-01-28T00:03:02;102923.03;;;0.09;100.00
4767;BME280;2397;53.576;9.746;2023-01-28T00:05:28;102927.94;;;0.16;100.00
4767;BME280;2397;53.576;9.746;2023-01-28T00:07:55;102926.56;;;0.20;100.00
4767;BME280;2397;53.576;9.746;2023-01-28T00:10:23;102931.41;;;0.16;100.00
4767;BME280;2397;53.576;9.746;2023-01-28T00:12:49;102935.56;;;0.16;100.00
4767;BME280;2397;53.576;9.746;2023-01-28T00:15:16;102933.84;;;0.06;100.00
4767;BME280;2397;53.576;9.746;2023-01-28T00:17:42;102932.09;;;-0.04;100.00
4767;BME280;2397;53.576;9.746;2023-01-28T00:20:09;102933.31;;;0.00;100.00
4767;BME280;2397;53.576;9.746;2023-01-28T00:22:36;102931.38;;;-0.03;100.00
4767;BME280;2397;53.576;9.746;2023-01-28T00:25:02;102938.66;;;0.03;100.00
4767;BME280;2397;53.576;9.746;2023-01-28T00:27:29;102940.25;;;0.11;100.00
4767;BME280;2397;53.576;9.746;2023-01-28T00:29:56;102938.94;;;0.06;100.00
4767;BME280;2397;53.576;9.746;2023-01-28T00:32:22;102938.16;;;0.07;100.00
4767;BME280;2397;53.576;9.746;2023-01-28T00:34:49;102940.94;;;0.19;100.00
4767;BME280;2397;53.576;9.746;2023-01-28T00:37:15;102936.75;;;0.20;100.00
4767;BME280;2397;53.576;9.746;2023-01-28T00:39:41;102938.44;;;0.10;100.00
4767;BME280;2397;53.576;9.746;2023-01-28T00:42:08;102935.91;;;0.10;100.00
4767;BME280;2397;53.576;9.746;2023-01-28T00:44:34;102927.66;;;0.13;100.00
4767;BME280;2397;53.576;9.746;2023-01-28T00:47:01;102922.41;;;0.11;100.00
4767;BME280;2397;53.576;9.746;2023-01-28T00:49:27;102925.81;;;0.02;100.00
4767;BME280;2397;53.576;9.746;2023-01-28T00:51:54;102924.84;;;0.10;100.00
4767;BME280;2397;53.576;9.746;2023-01-28T00:54:20;102923.75;;;0.16;100.00
4767;BME280;2397;53.576;9.746;2023-01-28T00:56:47;102926.84;;;0.23;100.00
4767;BME280;2397;53.576;9.746;2023-01-28T00:59:13;102925.38;;;0.16;100.00
4767;BME280;2397;53.576;9.746;2023-01-28T01:01:40;102922.97;;;0.17;100.00
4767;BME280;2397;53.576;9.746;2023-01-28T01:04:07;102927.03;;;0.15;100.00
4767;BME280;2397;53.576;9.746;2023-01-28T01:06:36;102927.47;;;0.20;100.00
4767;BME280;2397;53.576;9.746;2023-01-28T01:09:05;102920.94;;;0.13;100.00
4767;BME280;2397;53.576;9.746;2023-01-28T01:11:33;102930.66;;;0.09;100.00
4767;BME280;2397;53.576;9.746;2023-01-28T01:14:00;102932.59;;;0.11;100.00
4767;BME280;2397;53.576;9.746;2023-01-28T01:16:30;102925.31;;;0.06;100.00
4767;BME280;2397;53.576;9.746;2023-01-28T01:18:58;102924.88;;;0.01;100.00
4767;BME280;2397;53.576;9.746;2023-01-28T01:21:26;102924.22;;;0.12;100.00
4767;BME280;2397;53.576;9.746;2023-01-28T01:23:53;102930.94;;;0.12;100.00
4767;BME280;2397;53.576;9.746;2023-01-28T01:26:20;102936.53;;;0.08;100.00
4767;BME280;2397;53.576;9.746;2023-01-28T01:28:47;102931.97;;;-0.05;100.00
4767;BME280;2397;53.576;9.746;2023-01-28T01:31:16;102919.00;;;-0.17;100.00
4767;BME280;2397;53.576;9.746;2023-01-28T01:33:44;102917.78;;;-0.12;100.00
4767;BME280;2397;53.576;9.746;2023-01-28T01:36:13;102917.44;;;-0.06;100.00
4767;BME280;2397;53.576;9.746;2023-01-28T01:38:40;102913.69;;;-0.01;100.00
4767;BME280;2397;53.576;9.746;2023-01-28T01:41:22;102918.91;;;0.01;100.00
4767;BME280;2397;53.576;9.746;2023-01-28T01:46:21;102913.44;;;0.15;100.00
4767;BME280;2397;53.576;9.746;2023-01-28T01:48:49;102908.75;;;0.20;100.00
4767;BME280;2397;53.576;9.746;2023-01-28T01:51:22;102907.28;;;0.13;100.00
4767;BME280;2397;53.576;9.746;2023-01-28T01:53:52;102908.16;;;-0.06;100.00
4767;BME280;2397;53.576;9.746;2023-01-28T01:56:22;102914.81;;;-0.16;100.00
4767;BME280;2397;53.576;9.746;2023-01-28T01:58:52;102914.84;;;-0.25;100.00
4767;BME280;2397;53.576;9.746;2023-01-28T02:01:25;102910.06;;;-0.22;100.00
4767;BME280;2397;53.576;9.746;2023-01-28T02:04:10;102903.28;;;-0.13;100.00
4767;BME280;2397;53.576;9.746;2023-01-28T02:06:39;102907.31;;;-0.15;100.00
4767;BME280;2397;53.576;9.746;2023-01-28T02:09:22;102916.22;;;-0.29;100.00
4767;BME280;2397;53.576;9.746;2023-01-28T02:11:51;102913.41;;;-0.32;100.00
4767;BME280;2397;53.576;9.746;2023-01-28T02:14:20;102917.78;;;-0.40;100.00
4767;BME280;2397;53.576;9.746;2023-01-28T02:16:59;102912.69;;;-0.40;100.00
4767;BME280;2397;53.576;9.746;2023-01-28T02:19:33;102925.97;;;-0.33;100.00
4767;BME280;2397;53.576;9.746;2023-01-28T02:30:16;102916.84;;;-0.31;100.00
4767;BME280;2397;53.576;9.746;2023-01-28T02:32:59;102912.69;;;-0.40;100.00
4767;BME280;2397;53.576;9.746;2023-01-28T02:35:48;102910.38;;;-0.28;100.00
4767;BME280;2397;53.576;9.746;2023-01-28T02:38:28;102918.13;;;-0.17;100.00
4767;BME280;2397;53.576;9.746;2023-01-28T02:41:01;102925.91;;;-0.16;100.00
4767;BME280;2397;53.576;9.746;2023-01-28T02:46:13;102922.41;;;-0.36;100.00
4767;BME280;2397;53.576;9.746;2023-01-28T02:49:03;102912.28;;;-0.44;100.00
4767;BME280;2397;53.576;9.746;2023-01-28T02:51:59;102922.41;;;-0.36;100.00
4767;BME280;2397;53.576;9.746;2023-01-28T02:59:47;102914.16;;;-0.33;100.00
4767;BME280;2397;53.576;9.746;2023-01-28T03:02:33;102914.00;;;-0.34;100.00
4767;BME280;2397;53.576;9.746;2023-01-28T03:08:04;102922.47;;;-0.25;100.00
4767;BME280;2397;53.576;9.746;2023-01-28T03:10:54;102911.56;;;-0.24;100.00
4767;BME280;2397;53.576;9.746;2023-01-28T03:13:41;102909.75;;;-0.25;100.00
4767;BME280;2397;53.576;9.746;2023-01-28T03:16:28;102907.22;;;-0.25;100.00
4767;BME280;2397;53.576;9.746;2023-01-28T03:19:14;102894.16;;;-0.20;100.00
4767;BME280;2397;53.576;9.746;2023-01-28T03:22:00;102899.47;;;-0.08;100.00
4767;BME280;2397;53.576;9.746;2023-01-28T03:24:48;102908.34;;;-0.13;100.00
4767;BME280;2397;53.576;9.746;2023-01-28T03:28:04;102906.47;;;-0.24;100.00
4767;BME280;2397;53.576;9.746;2023-01-28T03:31:03;102907.22;;;-0.25;100.00
4767;BME280;2397;53.576;9.746;2023-01-28T03:33:50;102917.97;;;-0.19;100.00
4767;BME280;2397;53.576;9.746;2023-01-28T03:36:36;102914.47;;;-0.11;100.00
4767;BME280;2397;53.576;9.746;2023-01-28T03:39:34;102909.09;;;-0.14;100.00
4767;BME280;2397;53.576;9.746;2023-01-28T03:42:06;102924.69;;;-0.20;100.00
4767;BME280;2397;53.576;9.746;2023-01-28T03:44:34;102920.34;;;-0.12;100.00
4767;BME280;2397;53.576;9.746;2023-01-28T03:47:27;102923.06;;;-0.19;100.00
4767;BME280;2397;53.576;9.746;2023-01-28T03:49:55;102914.38;;;-0.21;100.00
4767;BME280;2397;53.576;9.746;2023-01-28T03:52:24;102928.06;;;-0.29;100.00
4767;BME280;2397;53.576;9.746;2023-01-28T03:54:50;102919.94;;;-0.25;100.00
4767;BME280;2397;53.576;9.746;2023-01-28T03:57:24;102920.25;;;-0.22;100.00
4767;BME280;2397;53.576;9.746;2023-01-28T03:59:51;102920.53;;;-0.19;100.00
4767;BME280;2397;53.576;9.746;2023-01-28T04:02:20;102920.38;;;-0.21;100.00
4767;BME280;2397;53.576;9.746;2023-01-28T04:04:47;102920.25;;;-0.22;100.00
4767;BME280;2397;53.576;9.746;2023-01-28T04:07:16;102915.47;;;-0.28;100.00
4767;BME280;2397;53.576;9.746;2023-01-28T04:09:42;102904.44;;;-0.37;100.00
4767;BME280;2397;53.576;9.746;2023-01-28T04:12:09;102912.97;;;-0.37;100.00
4767;BME280;2397;53.576;9.746;2023-01-28T04:14:36;102908.91;;;-0.34;100.00
4767;BME280;2397;53.576;9.746;2023-01-28T04:17:04;102908.34;;;-0.41;100.00
4767;BME280;2397;53.576;9.746;2023-01-28T04:19:32;102908.06;;;-0.44;100.00
4767;BME280;2397;53.576;9.746;2023-01-28T04:22:04;102915.00;;;-0.51;100.00
4767;BME280;2397;53.576;9.746;2023-01-28T04:24:31;102903.75;;;-0.54;100.00
4767;BME280;2397;53.576;9.746;2023-01-28T04:26:57;102908.41;;;-0.58;100.00
4767;BME280;2397;53.576;9.746;2023-01-28T04:29:24;102904.16;;;-0.68;100.00
4767;BME280;2397;53.576;9.746;2023-01-28T04:31:50;102901.59;;;-0.68;100.00
4767;BME280;2397;53.576;9.746;2023-01-28T04:34:17;102909.44;;;-0.84;100.00
4767;BME280;2397;53.576;9.746;2023-01-28T04:36:45;102915.09;;;-0.86;100.00
4767;BME280;2397;53.576;9.746;2023-01-28T04:39:11;102910.47;;;-0.91;100.00
4767;BME280;2397;53.576;9.746;2023-01-28T04:41:37;102909.47;;;-1.01;100.00
4767;BME280;2397;53.576;9.746;2023-01-28T04:44:04;102916.94;;;-1.03;100.00
4767;BME280;2397;53.576;9.746;2023-01-28T04:46:30;102913.53;;;-1.03;100.00
4767;BME280;2397;53.576;9.746;2023-01-28T04:48:57;102907.38;;;-1.06;100.00
4767;BME280;2397;53.576;9.746;2023-01-28T04:51:23;102915.28;;;-1.02;100.00
4767;BME280;2397;53.576;9.746;2023-01-28T04:53:50;102917.84;;;-1.02;100.00
4767;BME280;2397;53.576;9.746;2023-01-28T04:56:16;102927.13;;;-1.12;100.00
4767;BME280;2397;53.576;9.746;2023-01-28T04:58:43;102914.88;;;-1.16;100.00
4767;BME280;2397;53.576;9.746;2023-01-28T05:01:09;102916.69;;;-1.24;100.00
4767;BME280;2397;53.576;9.746;2023-01-28T05:03:36;102920.09;;;-1.23;100.00
4767;BME280;2397;53.576;9.746;2023-01-28T05:06:02;102922.94;;;-1.20;100.00
4767;BME280;2397;53.576;9.746;2023-01-28T05:08:30;102901.28;;;-1.34;100.00
4767;BME280;2397;53.576;9.746;2023-01-28T05:10:56;102906.22;;;-1.27;100.00
4767;BME280;2397;53.576;9.746;2023-01-28T05:13:23;102899.03;;;-1.31;100.00
4767;BME280;2397;53.576;9.746;2023-01-28T05:15:51;102901.16;;;-1.44;100.00
4767;BME280;2397;53.576;9.746;2023-01-28T05:18:18;102892.22;;;-1.49;100.00
4767;BME280;2397;53.576;9.746;2023-01-28T05:20:44;102883.22;;;-1.46;100.00
4767;BME280;2397;53.576;9.746;2023-01-28T05:23:11;102885.16;;;-1.43;100.00
4767;BME280;2397;53.576;9.746;2023-01-28T05:25:37;102880.97;;;-1.51;100.00
4767;BME280;2397;53.576;9.746;2023-01-28T05:28:04;102888.00;;;-1.49;100.00
4767;BME280;2397;53.576;9.746;2023-01-28T05:30:30;102879.94;;;-1.53;100.00
4767;BME280;2397;53.576;9.746;2023-01-28T05:32:57;102881.91;;;-1.60;100.00
4767;BME280;2397;53.576;9.746;2023-01-28T05:35:23;102885.19;;;-1.61;100.00
4767;BME280;2397;53.576;9.746;2023-01-28T05:37:50;102879.22;;;-1.61;100.00
4767;BME280;2397;53.576;9.746;2023-01-28T05:40:17;102882.03;;;-1.58;100.00
4767;BME280;2397;53.576;9.746;2023-01-28T05:42:43;102886.53;;;-1.64;100.00
4767;BME280;2397;53.576;9.746;2023-01-28T05:45:10;102888.94;;;-1.74;100.00
4767;BME280;2397;53.576;9.746;2023-01-28T05:47:37;102885.31;;;-1.77;100.00
4767;BME280;2397;53.576;9.746;2023-01-28T05:50:05;102885.03;;;-1.80;100.00
4767;BME280;2397;53.576;9.746;2023-01-28T05:52:32;102882.78;;;-1.85;100.00
4767;BME280;2397;53.576;9.746;2023-01-28T05:54:58;102888.16;;;-1.82;100.00
4767;BME280;2397;53.576;9.746;2023-01-28T05:57:25;102889.06;;;-1.82;100.00
4767;BME280;2397;53.576;9.746;2023-01-28T05:59:51;102887.84;;;-1.85;100.00
4767;BME280;2397;53.576;9.746;2023-01-28T06:02:18;102887.84;;;-1.94;100.00
4767;BME280;2397;53.576;9.746;2023-01-28T06:04:44;102888.31;;;-1.98;100.00
4767;BME280;2397;53.576;9.746;2023-01-28T06:07:10;102888.91;;;-1.92;100.00
4767;BME280;2397;53.576;9.746;2023-01-28T06:09:38;102884.69;;;-2.00;100.00
4767;BME280;2397;53.576;9.746;2023-01-28T06:12:05;102874.09;;;-1.96;100.00
4767;BME280;2397;53.576;9.746;2023-01-28T06:14:31;102879.31;;;-2.03;100.00
4767;BME280;2397;53.576;9.746;2023-01-28T06:16:57;102880.69;;;-1.98;100.00
4767;BME280;2397;53.576;9.746;2023-01-28T06:19:24;102872.16;;;-2.07;100.00
4767;BME280;2397;53.576;9.746;2023-01-28T06:21:50;102858.13;;;-2.04;100.00
4767;BME280;2397;53.576;9.746;2023-01-28T06:24:17;102866.78;;;-2.10;100.00
4767;BME280;2397;53.576;9.746;2023-01-28T06:26:43;102862.59;;;-2.19;100.00
4767;BME280;2397;53.576;9.746;2023-01-28T06:29:10;102861.09;;;-2.17;100.00
4767;BME280;2397;53.576;9.746;2023-01-28T06:31:36;102858.28;;;-2.11;100.00
4767;BME280;2397;53.576;9.746;2023-01-28T06:34:02;102857.56;;;-2.01;100.00
4767;BME280;2397;53.576;9.746;2023-01-28T06:36:29;102872.31;;;-1.88;100.00
4767;BME280;2397;53.576;9.746;2023-01-28T06:38:56;102843.81;;;-1.95;100.00
4767;BME280;2397;53.576;9.746;2023-01-28T06:41:22;102860.69;;;-1.95;100.00
4767;BME280;2397;53.576;9.746;2023-01-28T06:43:48;102853.34;;;-2.01;100.00
4767;BME280;2397;53.576;9.746;2023-01-28T06:46:15;102862.28;;;-2.04;100.00
4767;BME280;2397;53.576;9.746;2023-01-28T06:48:41;102869.47;;;-2.00;100.00
4767;BME280;2397;53.576;9.746;2023-01-28T06:51:08;102883.22;;;-1.98;100.00
4767;BME280;2397;53.576;9.746;2023-01-28T06:53:34;102883.81;;;-1.92;100.00
4767;BME280;2397;53.576;9.746;2023-01-28T06:56:01;102894.41;;;-1.96;100.00
4767;BME280;2397;53.576;9.746;2023-01-28T06:58:27;102903.50;;;-2.07;100.00
4767;BME280;2397;53.576;9.746;2023-01-28T07:00:54;102917.53;;;-2.10;100.00
4767;BME280;2397;53.576;9.746;2023-01-28T07:03:20;102924.84;;;-2.14;100.00
4767;BME280;2397;53.576;9.746;2023-01-28T07:05:47;102938.59;;;-2.12;100.00
4767;BME280;2397;53.576;9.746;2023-01-28T07:08:13;102947.06;;;-2.20;100.00
4767;BME280;2397;53.576;9.746;2023-01-28T07:10:39;102946.03;;;-2.22;100.00
4767;BME280;2397;53.576;9.746;2023-01-28T07:13:06;102949.72;;;-2.27;100.00
4767;BME280;2397;53.576;9.746;2023-01-28T07:15:32;102953.91;;;-2.27;100.00
4767;BME280;2397;53.576;9.746;2023-01-28T07:17:59;102964.94;;;-2.27;100.00
4767;BME280;2397;53.576;9.746;2023-01-28T07:20:25;102963.75;;;-2.31;100.00
4767;BME280;2397;53.576;9.746;2023-01-28T07:22:51;102952.97;;;-2.28;100.00
4767;BME280;2397;53.576;9.746;2023-01-28T07:25:18;102953.63;;;-2.22;100.00
4767;BME280;2397;53.576;9.746;2023-01-28T07:27:47;102960.47;;;-2.21;100.00
4767;BME280;2397;53.576;9.746;2023-01-28T07:30:14;102955.72;;;-2.26;100.00
4767;BME280;2397;53.576;9.746;2023-01-28T07:32:42;102958.41;;;-2.25;100.00
4767;BME280;2397;53.576;9.746;2023-01-28T07:35:08;102960.47;;;-2.21;100.00
4767;BME280;2397;53.576;9.746;2023-01-28T07:37:35;102962.28;;;-2.20;100.00
4767;BME280;2397;53.576;9.746;2023-01-28T07:40:01;102963.66;;;-2.15;100.00
4767;BME280;2397;53.576;9.746;2023-01-28T07:42:28;102970.50;;;-2.14;100.00
4767;BME280;2397;53.576;9.746;2023-01-28T07:44:54;102964.28;;;-2.00;100.00
4767;BME280;2397;53.576;9.746;2023-01-28T07:47:20;102957.88;;;-1.96;100.00
4767;BME280;2397;53.576;9.746;2023-01-28T07:49:47;102963.56;;;-1.90;100.00
4767;BME280;2397;53.576;9.746;2023-01-28T07:52:13;102964.63;;;-1.88;100.00
4767;BME280;2397;53.576;9.746;2023-01-28T07:54:40;102966.22;;;-1.97;100.00
4767;BME280;2397;53.576;9.746;2023-01-28T07:57:07;102968.16;;;-2.03;100.00
4767;BME280;2397;53.576;9.746;2023-01-28T07:59:36;102966.53;;;-2.03;100.00
4767;BME280;2397;53.576;9.746;2023-01-28T08:02:03;102965.47;;;-2.05;100.00
4767;BME280;2397;53.576;9.746;2023-01-28T08:04:29;102974.00;;;-1.87;100.00
4767;BME280;2397;53.576;9.746;2023-01-28T08:06:56;102975.38;;;-1.82;100.00
4767;BME280;2397;53.576;9.746;2023-01-28T08:09:22;102974.94;;;-1.78;100.00
4767;BME280;2397;53.576;9.746;2023-01-28T08:11:49;102968.22;;;-1.77;100.00
4767;BME280;2397;53.576;9.746;2023-01-28T08:14:15;102978.38;;;-1.77;100.00
4767;BME280;2397;53.576;9.746;2023-01-28T08:16:42;102975.25;;;-1.74;100.00
4767;BME280;2397;53.576;9.746;2023-01-28T08:19:08;102969.53;;;-1.81;100.00
4767;BME280;2397;53.576;9.746;2023-01-28T08:21:35;102979.88;;;-1.79;100.00
4767;BME280;2397;53.576;9.746;2023-01-28T08:24:01;102977.03;;;-1.73;100.00
4767;BME280;2397;53.576;9.746;2023-01-28T08:26:28;102968.38;;;-1.75;100.00
4767;BME280;2397;53.576;9.746;2023-01-28T08:28:54;102953.13;;;-1.75;100.00
4767;BME280;2397;53.576;9.746;2023-01-28T08:31:21;102951.63;;;-1.73;100.00
4767;BME280;2397;53.576;9.746;2023-01-28T08:33:47;102944.47;;;-1.78;100.00
4767;BME280;2397;53.576;9.746;2023-01-28T08:36:13;102956.41;;;-1.77;100.00
4767;BME280;2397;53.576;9.746;2023-01-28T08:38:40;102966.56;;;-1.77;100.00
4767;BME280;2397;53.576;9.746;2023-01-28T08:41:08;102988.69;;;-1.67;100.00
4767;BME280;2397;53.576;9.746;2023-01-28T08:43:34;102972.41;;;-1.60;100.00
4767;BME280;2397;53.576;9.746;2023-01-28T08:46:04;102980.97;;;-1.51;100.00
4767;BME280;2397;53.576;9.746;2023-01-28T08:48:31;102988.75;;;-1.40;100.00
4767;BME280;2397;53.576;9.746;2023-01-28T08:50:58;102989.19;;;-1.36;100.00
4767;BME280;2397;53.576;9.746;2023-01-28T08:53:25;102993.34;;;-1.36;100.00
4767;BME280;2397;53.576;9.746;2023-01-28T08:55:52;102984.56;;;-1.31;100.00
4767;BME280;2397;53.576;9.746;2023-01-28T08:58:19;102993.81;;;-1.23;100.00
4767;BME280;2397;53.576;9.746;2023-01-28T09:00:46;102986.94;;;-1.15;100.00
4767;BME280;2397;53.576;9.746;2023-01-28T09:03:13;102992.03;;;-1.15;100.00
4767;BME280;2397;53.576;9.746;2023-01-28T09:05:40;102985.59;;;-1.12;100.00
4767;BME280;2397;53.576;9.746;2023-01-28T09:08:09;102990.22;;;-1.08;100.00
4767;BME280;2397;53.576;9.746;2023-01-28T09:10:36;102993.22;;;-1.03;100.00
4767;BME280;2397;53.576;9.746;2023-01-28T09:13:10;103004.84;;;-0.96;100.00
4767;BME280;2397;53.576;9.746;2023-01-28T09:15:37;103015.34;;;-0.93;100.00
4767;BME280;2397;53.576;9.746;2023-01-28T09:18:04;103022.50;;;-0.89;100.00
4767;BME280;2397;53.576;9.746;2023-01-28T09:20:30;103012.63;;;-0.86;100.00
4767;BME280;2397;53.576;9.746;2023-01-28T09:22:59;103013.38;;;-0.87;100.00
4767;BME280;2397;53.576;9.746;2023-01-28T09:25:26;103017.25;;;-0.82;100.00
4767;BME280;2397;53.576;9.746;2023-01-28T09:27:52;103018.47;;;-0.78;100.00
4767;BME280;2397;53.576;9.746;2023-01-28T09:30:18;103026.25;;;-0.77;100.00
4767;BME280;2397;53.576;9.746;2023-01-28T09:32:49;103032.94;;;-0.77;100.00
4767;BME280;2397;53.576;9.746;2023-01-28T09:35:15;103030.84;;;-0.73;100.00
4767;BME280;2397;53.576;9.746;2023-01-28T09:37:43;103037.44;;;-0.75;100.00
4767;BME280;2397;53.576;9.746;2023-01-28T09:40:39;103034.59;;;-0.69;100.00
4767;BME280;2397;53.576;9.746;2023-01-28T09:45:57;103018.75;;;-0.66;100.00
4767;BME280;2397;53.576;9.746;2023-01-28T09:48:37;103018.59;;;-0.68;100.00
4767;BME280;2397;53.576;9.746;2023-01-28T09:51:31;103019.47;;;-0.59;100.00
4767;BME280;2397;53.576;9.746;2023-01-28T09:54:04;103014.81;;;-0.54;100.00
4767;BME280;2397;53.576;9.746;2023-01-28T09:56:35;103008.69;;;-0.47;100.00
4767;BME280;2397;53.576;9.746;2023-01-28T09:59:16;103011.03;;;-0.49;100.00
4767;BME280;2397;53.576;9.746;2023-01-28T10:02:33;102989.03;;;-0.40;100.00
4767;BME280;2397;53.576;9.746;2023-01-28T10:10:48;102998.69;;;-0.27;100.00
4767;BME280;2397;53.576;9.746;2023-01-28T10:16:33;102986.06;;;-0.16;100.00
4767;BME280;2397;53.576;9.746;2023-01-28T10:19:13;102979.91;;;-0.10;100.00
4767;BME280;2397;53.576;9.746;2023-01-28T10:21:51;102978.53;;;-0.06;100.00
4767;BME280;2397;53.576;9.746;2023-01-28T10:24:30;102994.41;;;0.00;100.00
4767;BME280;2397;53.576;9.746;2023-01-28T10:27:07;102983.31;;;-0.01;100.00
4767;BME280;2397;53.576;9.746;2023-01-28T10:29:37;102979.47;;;-0.06;100.00
4767;BME280;2397;53.576;9.746;2023-01-28T10:32:22;102972.56;;;-0.07;100.00
4767;BME280;2397;53.576;9.746;2023-01-28T10:34:53;102970.75;;;-0.08;100.00
4767;BME280;2397;53.576;9.746;2023-01-28T10:37:20;102970.47;;;-0.11;100.00
4767;BME280;2397;53.576;9.746;2023-01-28T10:39:46;102956.13;;;-0.10;100.00
4767;BME280;2397;53.576;9.746;2023-01-28T10:42:19;102941.72;;;-0.10;100.00
4767;BME280;2397;53.576;9.746;2023-01-28T10:44:56;102944.38;;;0.01;100.00
4767;BME280;2397;53.576;9.746;2023-01-28T10:47:29;102951.50;;;0.13;100.00
4767;BME280;2397;53.576;9.746;2023-01-28T10:49:57;102938.75;;;0.32;100.00
4767;BME280;2397;53.576;9.746;2023-01-28T10:52:25;102931.81;;;0.40;100.00
4767;BME280;2397;53.576;9.746;2023-01-28T10:55:02;102934.09;;;0.37;100.00
4767;BME280;2397;53.576;9.746;2023-01-28T10:57:32;102922.72;;;0.33;100.00
4767;BME280;2397;53.576;9.746;2023-01-28T11:00:16;102902.75;;;0.38;100.00
4767;BME280;2397;53.576;9.746;2023-01-28T11:02:48;102906.16;;;0.58;100.00
4767;BME280;2397;53.576;9.746;2023-01-28T11:05:18;102917.38;;;0.79;100.00
4767;BME280;2397;53.576;9.746;2023-01-28T11:07:48;102916.88;;;0.83;100.00
4767;BME280;2397;53.576;9.746;2023-01-28T11:12:57;102910.97;;;0.74;100.00
4767;BME280;2397;53.576;9.746;2023-01-28T11:15:24;102892.88;;;0.70;100.00
4767;BME280;2397;53.576;9.746;2023-01-28T11:18:02;102885.97;;;0.69;100.00
4767;BME280;2397;53.576;9.746;2023-01-28T11:20:40;102879.63;;;0.75;100.00
4767;BME280;2397;53.576;9.746;2023-01-28T11:23:23;102884.25;;;0.79;100.00
4767;BME280;2397;53.576;9.746;2023-01-28T11:26:04;102877.13;;;0.85;100.00
4767;BME280;2397;53.576;9.746;2023-01-28T11:28:31;102868.94;;;0.79;100.00
4767;BME280;2397;53.576;9.746;2023-01-28T11:31:00;102886.00;;;0.80;100.00
4767;BME280;2397;53.576;9.746;2023-01-28T11:33:32;102874.09;;;0.89;100.00
4767;BME280;2397;53.576;9.746;2023-01-28T11:36:22;102874.22;;;0.91;100.00
4767;BME280;2397;53.576;9.746;2023-01-28T11:38:53;102876.50;;;0.87;100.00
4767;BME280;2397;53.576;9.746;2023-01-28T11:41:35;102861.59;;;0.92;100.00
4767;BME280;2397;53.576;9.746;2023-01-28T11:44:23;102868.72;;;0.86;100.00
4767;BME280;2397;53.576;9.746;2023-01-28T11:53:15;102858.44;;;0.65;100.00
4767;BME280;2397;53.576;9.746;2023-01-28T12:07:15;102878.22;;;1.08;100.00
4767;BME280;2397;53.576;9.746;2023-01-28T12:09:59;102878.03;;;1.35;100.00
4767;BME280;2397;53.576;9.746;2023-01-28T12:18:26;102852.16;;;1.31;100.00
4767;BME280;2397;53.576;9.746;2023-01-28T12:23:59;102852.06;;;1.60;100.00
4767;BME280;2397;53.576;9.746;2023-01-28T12:26:44;102847.22;;;1.73;100.00
4767;BME280;2397;53.576;9.746;2023-01-28T12:35:13;102830.31;;;2.17;100.00
4767;BME280;2397;53.576;9.746;2023-01-28T12:38:02;102829.00;;;2.11;100.00
4767;BME280;2397;53.576;9.746;2023-01-28T12:40:51;102812.44;;;2.06;100.00
4767;BME280;2397;53.576;9.746;2023-01-28T12:43:44;102814.22;;;2.07;100.00
4767;BME280;2397;53.576;9.746;2023-01-28T12:46:21;102803.13;;;1.86;100.00
4767;BME280;2397;53.576;9.746;2023-01-28T12:51:58;102797.66;;;1.71;100.00
4767;BME280;2397;53.576;9.746;2023-01-28T12:54:56;102793.47;;;1.72;100.00
4767;BME280;2397;53.576;9.746;2023-01-28T12:57:31;102787.06;;;1.77;100.00
4767;BME280;2397;53.576;9.746;2023-01-28T13:00:05;102798.44;;;1.70;100.00
4767;BME280;2397;53.576;9.746;2023-01-28T13:02:43;102800.59;;;1.66;100.00
4767;BME280;2397;53.576;9.746;2023-01-28T13:05:16;102800.47;;;1.64;100.00
4767;BME280;2397;53.576;9.746;2023-01-28T13:07:58;102786.94;;;1.65;100.00
4767;BME280;2397;53.576;9.746;2023-01-28T13:10:39;102785.44;;;1.57;100.00
4767;BME280;2397;53.576;9.746;2023-01-28T13:13:14;102788.38;;;1.51;100.00
4767;BME280;2397;53.576;9.746;2023-01-28T13:15:43;102786.69;;;1.52;100.00
4767;BME280;2397;53.576;9.746;2023-01-28T13:21:14;102778.78;;;1.69;100.00
4767;BME280;2397;53.576;9.746;2023-01-28T13:23:47;102787.94;;;1.67;100.00
4767;BME280;2397;53.576;9.746;2023-01-28T13:28:51;102796.66;;;1.69;100.00
4767;BME280;2397;53.576;9.746;2023-01-28T13:31:20;102805.06;;;1.68;100.00
4767;BME280;2397;53.576;9.746;2023-01-28T13:36:26;102807.38;;;1.65;100.00
4767;BME280;2397;53.576;9.746;2023-01-28T13:41:55;102801.75;;;1.69;100.00
4767;BME280;2397;53.576;9.746;2023-01-28T13:44:32;102796.66;;;1.69;100.00
4767;BME280;2397;53.576;9.746;2023-01-28T13:47:14;102796.28;;;1.65;100.00
4767;BME280;2397;53.576;9.746;2023-01-28T13:49:46;102807.38;;;1.65;100.00
4767;BME280;2397;53.576;9.746;2023-01-28T13:52:25;102814.28;;;1.66;100.00
4767;BME280;2397;53.576;9.746;2023-01-28T13:54:58;102804.94;;;1.67;100.00
4767;BME280;2397;53.576;9.746;2023-01-28T14:00:33;102819.13;;;1.63;100.00
4767;BME280;2397;53.576;9.746;2023-01-28T14:03:46;102814.41;;;1.57;100.00
4767;BME280;2397;53.576;9.746;2023-01-28T14:12:27;102810.41;;;1.40;100.00
4767;BME280;2397;53.576;9.746;2023-01-28T14:17:46;102820.75;;;1.52;100.00
4767;BME280;2397;53.576;9.746;2023-01-28T14:20:19;102808.00;;;1.42;100.00
4767;BME280;2397;53.576;9.746;2023-01-28T14:22:46;102798.31;;;1.48;100.00
4767;BME280;2397;53.576;9.746;2023-01-28T14:25:32;102791.41;;;1.47;100.00
4767;BME280;2397;53.576;9.746;2023-01-28T14:28:02;102785.16;;;1.54;100.00
4767;BME280;2397;53.576;9.746;2023-01-28T14:30:42;102787.69;;;1.54;100.00
4767;BME280;2397;53.576;9.746;2023-01-28T14:33:12;102788.75;;;1.56;100.00
4767;BME280;2397;53.576;9.746;2023-01-28T14:35:44;102781.72;;;1.53;100.00
4767;BME280;2397;53.576;9.746;2023-01-28T14:38:16;102788.50;;;1.53;100.00
4767;BME280;2397;53.576;9.746;2023-01-28T14:40:44;102791.41;;;1.47;100.00
4767;BME280;2397;53.576;9.746;2023-01-28T14:43:15;102804.94;;;1.46;100.00
4767;BME280;2397;53.576;9.746;2023-01-28T14:57:18;102813.75;;;1.50;100.00
4767;BME280;2397;53.576;9.746;2023-01-28T14:59:54;102815.78;;;1.54;100.00
4767;BME280;2397;53.576;9.746;2023-01-28T15:02:29;102817.72;;;1.56;100.00
4767;BME280;2397;53.576;9.746;2023-01-28T15:05:07;102816.31;;;1.60;100.00
4767;BME280;2397;53.576;9.746;2023-01-28T15:07:34;102825.22;;;1.55;100.00
4767;BME280;2397;53.576;9.746;2023-01-28T15:10:15;102825.22;;;1.55;100.00
4767;BME280;2397;53.576;9.746;2023-01-28T15:12:53;102822.81;;;1.56;100.00